Time;durP1;ratioP1;P1;durP2;ratioP2;P2;SDS_P1;SDS_P2;PMS_P1;PMS_P2;Temp;Humidity;BMP_temperature;BMP_pressure;BME280_temperature;BME280_humidity;BME280_pressure;Samples;Min_cycle;Max_cycle;Signal;HPM_P1;HPM_P2
2021/11/13 00:00:05;;;;;;;3.17;2.60;;;;;;;-145.06;100.00;60892.56;4886625;28;20272;-89
2021/11/13 00:02:44;;;;;;;2.75;2.33;;;;;;;-145.06;100.00;60892.56;4870289;28;20036;-89
2021/11/13 00:05:24;;;;;;;3.47;2.40;;;;;;;-145.06;100.00;60892.56;4887125;28;20032;-88
2021/11/13 00:08:04;;;;;;;3.88;2.70;;;;;;;-145.06;100.00;60892.56;4878119;28;20462;-88
2021/11/13 00:10:43;;;;;;;3.97;2.70;;;;;;;-145.06;100.00;60892.56;4883837;28;20033;-88
2021/11/13 00:13:24;;;;;;;3.22;2.28;;;;;;;-145.06;100.00;60892.56;4883784;28;21285;-90
2021/11/13 00:16:03;;;;;;;4.70;2.65;;;;;;;-145.06;100.00;60892.56;4883060;28;20025;-89
2021/11/13 00:18:42;;;;;;;3.72;2.30;;;;;;;-145.06;100.00;60892.56;4879791;28;20494;-89
2021/11/13 00:21:21;;;;;;;3.30;2.40;;;;;;;-145.06;100.00;60892.56;4888650;28;20040;-89
2021/11/13 00:24:00;;;;;;;4.68;2.70;;;;;;;-145.06;100.00;60892.56;4879761;28;20486;-89
2021/11/13 00:26:39;;;;;;;3.47;2.50;;;;;;;-145.06;100.00;60892.56;4885830;28;20033;-89
2021/11/13 00:29:18;;;;;;;3.37;2.30;;;;;;;-145.06;100.00;60892.56;4888163;28;20029;-89
2021/11/13 00:31:57;;;;;;;3.30;2.13;;;;;;;-145.06;100.00;60892.56;4880622;28;20029;-88
2021/11/13 00:34:36;;;;;;;3.33;1.92;;;;;;;-145.06;100.00;60892.56;4878822;28;20104;-89
2021/11/13 00:37:15;;;;;;;2.83;1.93;;;;;;;-145.06;100.00;60892.56;4879238;28;20112;-89
2021/11/13 00:39:54;;;;;;;3.55;2.20;;;;;;;187.52;100.00;60892.56;4874149;28;20280;-88
2021/11/13 00:42:34;;;;;;;3.05;1.92;;;;;;;-145.06;100.00;60892.56;4885029;28;20029;-89
2021/11/13 00:45:13;;;;;;;2.95;2.13;;;;;;;-145.06;100.00;60892.56;4890884;28;20359;-89
2021/11/13 00:47:51;;;;;;;3.13;1.97;;;;;;;-145.06;100.00;60892.56;4883551;28;20470;-88
2021/11/13 00:50:31;;;;;;;2.27;1.73;;;;;;;-145.06;100.00;60892.56;4876216;28;20108;-88
2021/11/13 00:53:10;;;;;;;2.47;1.70;;;;;;;-145.06;100.00;60892.56;4884897;28;20267;-88
2021/11/13 00:55:49;;;;;;;1.98;1.50;;;;;;;-145.06;100.00;60892.56;4874807;28;20542;-88
2021/11/13 00:58:28;;;;;;;1.73;1.37;;;;;;;-145.06;100.00;60892.56;4889595;28;20021;-89
2021/11/13 01:01:07;;;;;;;2.28;1.70;;;;;;;-145.06;100.00;60892.56;4890386;28;20025;-89
2021/11/13 01:03:46;;;;;;;2.80;1.95;;;;;;;-145.06;100.00;60892.56;4880157;28;20037;-88
2021/11/13 01:06:25;;;;;;;2.65;1.70;;;;;;;-145.06;100.00;60892.56;4864929;28;20032;-89
2021/11/13 01:09:04;;;;;;;2.80;1.58;;;;;;;-145.06;100.00;60892.56;4888516;28;20033;-88
2021/11/13 01:11:43;;;;;;;3.07;1.60;;;;;;;-145.06;100.00;60892.56;4882531;28;20033;-89
2021/11/13 01:14:22;;;;;;;1.60;1.30;;;;;;;-145.06;100.00;60892.56;4894692;28;20024;-89
2021/11/13 01:17:01;;;;;;;3.42;1.50;;;;;;;-145.06;100.00;60892.56;4873289;28;20024;-89
2021/11/13 01:19:42;;;;;;;2.80;1.73;;;;;;;-145.06;100.00;60892.56;4878672;28;20021;-89
2021/11/13 01:22:21;;;;;;;1.42;1.02;;;;;;;-145.06;100.00;60892.56;4885369;28;20025;-88
2021/11/13 01:25:00;;;;;;;2.85;1.33;;;;;;;-145.06;100.00;60892.56;4884158;28;20372;-88
2021/11/13 01:27:39;;;;;;;3.10;1.43;;;;;;;-145.06;100.00;60892.56;4883343;28;20037;-90
2021/11/13 01:30:18;;;;;;;1.60;1.20;;;;;;;-145.06;100.00;60892.56;4871454;28;20427;-88
2021/11/13 01:32:57;;;;;;;1.83;1.10;;;;;;;10.41;100.00;60892.56;4882805;28;20267;-88
2021/11/13 01:35:36;;;;;;;1.80;1.35;;;;;;;-145.06;100.00;60892.56;4878956;28;20028;-90
2021/11/13 01:38:15;;;;;;;3.30;1.53;;;;;;;10.44;100.00;60892.56;4886181;28;20538;-89
2021/11/13 01:40:54;;;;;;;3.60;1.90;;;;;;;-145.06;100.00;60892.56;4887574;28;20044;-89
2021/11/13 01:43:36;;;;;;;1.63;1.47;;;;;;;10.43;100.00;60892.56;4881484;28;20033;-90
2021/11/13 01:46:16;;;;;;;2.42;1.40;;;;;;;-145.06;100.00;60892.56;4887356;28;20029;-88
2021/11/13 01:48:54;;;;;;;2.78;1.55;;;;;;;10.68;100.00;60892.56;4879951;28;20368;-88
2021/11/13 01:51:34;;;;;;;2.33;1.23;;;;;;;10.68;100.00;60892.56;4870318;28;20029;-89
2021/11/13 01:54:13;;;;;;;3.28;1.73;;;;;;;-145.06;100.00;60892.56;4884254;28;20028;-89
2021/11/13 01:56:53;;;;;;;2.47;1.60;;;;;;;-145.06;100.00;60892.56;4878963;28;20053;-88
2021/11/13 01:59:32;;;;;;;4.18;1.73;;;;;;;-145.06;100.00;60892.56;4873819;28;20025;-88
2021/11/13 02:02:11;;;;;;;2.65;1.65;;;;;;;10.68;100.00;60892.56;4886611;28;20024;-88
2021/11/13 02:04:50;;;;;;;4.22;1.67;;;;;;;-145.06;100.00;60892.56;4884544;28;20028;-88
2021/11/13 02:07:28;;;;;;;3.13;2.03;;;;;;;-145.06;100.00;60892.56;4877961;28;20032;-89
2021/11/13 02:10:09;;;;;;;3.97;1.40;;;;;;;-145.06;100.00;60892.56;4885238;28;20025;-89
2021/11/13 02:12:48;;;;;;;2.60;1.70;;;;;;;21.08;100.00;60892.56;4880415;28;20021;-89
2021/11/13 02:15:28;;;;;;;5.10;2.20;;;;;;;-145.06;100.00;60892.56;4875276;28;20490;-89
2021/11/13 02:18:07;;;;;;;;;;;;;;;-145.06;100.00;60892.56;4884549;28;20025;-89
2021/11/13 02:20:46;;;;;;;6.13;2.50;;;;;;;-145.06;100.00;60892.56;4895209;28;19909;-90
2021/11/13 02:23:26;;;;;;;5.72;2.10;;;;;;;10.81;100.00;60892.56;4877020;28;20024;-88
2021/11/13 02:26:06;;;;;;;4.32;2.15;;;;;;;-145.06;100.00;60892.56;4885969;28;20028;-89
2021/11/13 02:28:45;;;;;;;4.47;2.05;;;;;;;10.83;100.00;60892.56;4881497;28;20020;-89
2021/11/13 02:31:33;;;;;;;4.73;2.33;;;;;;;-145.06;100.00;60892.56;4875401;28;20041;-90
2021/11/13 02:34:12;;;;;;;3.75;2.20;;;;;;;-145.06;100.00;60892.56;4882811;28;20025;-89
2021/11/13 02:36:51;;;;;;;5.43;2.43;;;;;;;-145.06;100.00;60892.56;4877028;28;20033;-89
2021/11/13 02:39:30;;;;;;;4.57;2.60;;;;;;;10.88;100.00;60892.56;4876301;28;20026;-89
2021/11/13 02:42:09;;;;;;;5.82;3.10;;;;;;;-145.06;100.00;60892.56;4872603;28;20372;-88
2021/11/13 02:44:52;;;;;;;5.47;2.95;;;;;;;11.98;100.00;60892.56;4876245;28;20068;-88
2021/11/13 02:47:33;;;;;;;7.40;3.05;;;;;;;10.89;100.00;60892.56;4883604;28;20068;-90
2021/11/13 02:50:15;;;;;;;3.72;2.47;;;;;;;-145.06;100.00;60892.56;4884568;28;20021;-89
2021/11/13 02:52:56;;;;;;;4.05;2.53;;;;;;;10.90;100.00;60892.56;4882954;28;20020;-89
2021/11/13 02:55:36;;;;;;;4.00;2.05;;;;;;;-145.06;100.00;60892.56;4874608;28;20025;-89
2021/11/13 02:58:16;;;;;;;4.65;2.70;;;;;;;-145.06;100.00;60892.56;4884268;28;20032;-87
2021/11/13 03:00:57;;;;;;;;;;;;;;;-145.06;100.00;60892.56;4885126;28;20108;-88
2021/11/13 03:03:38;;;;;;;4.15;2.58;;;;;;;-145.06;100.00;60892.56;4889765;28;19909;-89
2021/11/13 03:06:17;;;;;;;3.28;2.45;;;;;;;10.87;100.00;60892.56;4884865;28;20029;-90
2021/11/13 03:08:56;;;;;;;3.17;2.00;;;;;;;10.93;100.00;60892.56;4878703;28;20025;-89
2021/11/13 03:11:36;;;;;;;5.30;3.00;;;;;;;10.87;100.00;60892.56;4878345;28;20111;-89
2021/11/13 03:14:15;;;;;;;4.18;2.65;;;;;;;10.88;100.00;60892.56;4884957;28;20111;-89
2021/11/13 03:17:03;;;;;;;4.65;3.08;;;;;;;-145.06;100.00;60892.56;4879706;28;20415;-88
2021/11/13 03:19:42;;;;;;;5.80;3.65;;;;;;;-145.06;100.00;60892.56;4868946;28;20479;-89
2021/11/13 03:22:21;;;;;;;6.60;3.60;;;;;;;-145.06;100.00;60892.56;4875184;28;20033;-90
2021/11/13 03:25:00;;;;;;;7.03;4.50;;;;;;;-145.06;100.00;60892.56;4872835;28;20033;-88
2021/11/13 03:27:44;;;;;;;6.65;4.60;;;;;;;-145.06;100.00;60892.56;4878981;28;20060;-89
2021/11/13 03:30:23;;;;;;;5.68;4.28;;;;;;;10.65;100.00;60892.56;4889761;28;20479;-89
2021/11/13 03:33:03;;;;;;;9.23;5.70;;;;;;;10.62;100.00;60892.56;4880663;28;20060;-89
2021/11/13 03:35:42;;;;;;;8.05;4.70;;;;;;;10.59;100.00;60892.56;4881114;28;20025;-89
2021/11/13 03:38:22;;;;;;;7.63;5.05;;;;;;;10.55;100.00;60892.56;4889265;28;20057;-88
2021/11/13 03:41:02;;;;;;;7.82;5.28;;;;;;;10.52;100.00;60892.56;4888448;28;20060;-88
2021/11/13 03:43:42;;;;;;;7.18;4.72;;;;;;;-145.06;100.00;60892.56;4880471;28;20029;-87
2021/11/13 03:46:21;;;;;;;7.05;4.40;;;;;;;-145.06;100.00;60892.56;4886450;28;20025;-88
2021/11/13 03:49:00;;;;;;;7.05;4.38;;;;;;;10.44;100.00;60892.56;4887541;28;20589;-88
2021/11/13 03:51:39;;;;;;;5.60;3.60;;;;;;;-145.06;100.00;60892.56;4870707;28;20028;-87
2021/11/13 03:54:18;;;;;;;5.73;3.63;;;;;;;-145.06;100.00;60892.56;4879940;28;20057;-87
2021/11/13 03:56:57;;;;;;;5.07;3.53;;;;;;;10.28;100.00;60892.56;4887517;28;20411;-88
2021/11/13 03:59:36;;;;;;;4.55;2.85;;;;;;;-145.06;100.00;60892.56;4879226;28;20052;-87
2021/11/13 04:02:15;;;;;;;3.92;2.78;;;;;;;10.28;100.00;60892.56;4871877;28;20072;-87
2021/11/13 04:04:54;;;;;;;3.40;2.60;;;;;;;10.22;100.00;60892.56;4881657;28;20033;-88
2021/11/13 04:07:33;;;;;;;3.28;2.60;;;;;;;-145.06;100.00;60892.56;4879999;28;20029;-87
2021/11/13 04:10:14;;;;;;;4.23;3.17;;;;;;;-145.06;100.00;60892.56;4891512;28;20016;-86
2021/11/13 04:12:53;;;;;;;4.55;2.85;;;;;;;10.14;100.00;60892.56;4882812;28;20300;-87
2021/11/13 04:15:32;;;;;;;3.70;2.50;;;;;;;-145.06;100.00;60892.56;4877222;28;20344;-87
2021/11/13 04:18:11;;;;;;;4.05;2.80;;;;;;;10.10;100.00;60892.56;4887632;28;20072;-87
2021/11/13 04:20:50;;;;;;;3.20;2.33;;;;;;;10.09;100.00;60892.56;4890999;28;20025;-88
2021/11/13 04:23:30;;;;;;;3.90;2.33;;;;;;;-145.06;100.00;60892.56;4877073;28;20024;-88
2021/11/13 04:26:08;;;;;;;2.65;2.03;;;;;;;-145.06;100.00;60892.56;4887251;28;20272;-88
2021/11/13 04:28:48;;;;;;;2.47;2.03;;;;;;;-145.06;100.00;60892.56;4888279;28;20020;-88
2021/11/13 04:31:26;;;;;;;3.08;2.00;;;;;;;-145.06;100.00;60892.56;4879024;28;20482;-88
2021/11/13 04:34:08;;;;;;;1.98;1.58;;;;;;;10.11;100.00;60892.56;4885967;28;20355;-88
2021/11/13 04:36:53;;;;;;;2.90;1.70;;;;;;;-145.06;100.00;60892.56;4875513;28;20025;-88
2021/11/13 04:39:31;;;;;;;1.52;1.38;;;;;;;-145.06;100.00;60892.56;4885225;28;20029;-88
2021/11/13 04:42:11;;;;;;;1.73;1.30;;;;;;;-145.06;100.00;60892.56;4885809;28;20028;-88
2021/11/13 04:44:50;;;;;;;1.35;1.10;;;;;;;-145.06;100.00;60892.56;4887369;28;20056;-88
2021/11/13 04:47:31;;;;;;;1.10;1.00;;;;;;;10.20;100.00;60892.56;4884420;28;20545;-88
2021/11/13 04:50:15;;;;;;;1.10;0.90;;;;;;;-145.06;100.00;60892.56;4876318;28;20013;-88
2021/11/13 04:52:54;;;;;;;1.10;0.88;;;;;;;-145.06;100.00;60892.56;4870199;28;20364;-88
2021/11/13 04:55:34;;;;;;;0.98;0.80;;;;;;;10.29;100.00;60892.56;4876103;28;20021;-88
2021/11/13 04:58:12;;;;;;;1.10;0.95;;;;;;;-145.06;100.00;60892.56;4883046;28;20036;-88
2021/11/13 05:00:51;;;;;;;0.87;0.60;;;;;;;-145.06;100.00;60892.56;4888129;28;20024;-89
2021/11/13 05:03:31;;;;;;;0.70;0.67;;;;;;;-145.06;100.00;60892.56;4873996;28;20577;-87
2021/11/13 05:06:10;;;;;;;0.68;0.65;;;;;;;-145.06;100.00;60892.56;4879009;28;20057;-88
2021/11/13 05:08:49;;;;;;;0.40;0.40;;;;;;;10.38;100.00;60892.56;4881431;28;20471;-88
2021/11/13 05:11:28;;;;;;;0.40;0.40;;;;;;;-145.06;100.00;60892.56;4887174;28;20033;-88
2021/11/13 05:14:07;;;;;;;0.50;0.47;;;;;;;-145.06;100.00;60892.56;4871781;28;20271;-88
2021/11/13 05:16:46;;;;;;;0.40;0.40;;;;;;;-145.06;100.00;60892.56;4894679;28;20438;-88
2021/11/13 05:19:25;;;;;;;0.50;0.50;;;;;;;10.68;100.00;60892.56;4874779;28;20021;-88
2021/11/13 05:22:05;;;;;;;0.37;0.37;;;;;;;10.52;100.00;60892.56;4882126;28;20060;-89
2021/11/13 05:24:44;;;;;;;0.45;0.40;;;;;;;10.52;100.00;60892.56;4886397;28;20757;-89
2021/11/13 05:27:23;;;;;;;0.45;0.43;;;;;;;-145.06;100.00;60892.56;4881925;28;20045;-88
2021/11/13 05:30:07;;;;;;;0.30;0.25;;;;;;;-145.06;100.00;60892.56;4868212;28;20021;-87
2021/11/13 05:32:47;;;;;;;0.30;0.30;;;;;;;10.55;100.00;60892.56;4867117;28;20479;-88
2021/11/13 05:35:26;;;;;;;0.40;0.40;;;;;;;-145.06;100.00;60892.56;4873063;28;20025;-88
2021/11/13 05:38:05;;;;;;;0.38;0.38;;;;;;;-145.06;100.00;60892.56;4880775;28;20032;-88
2021/11/13 05:40:45;;;;;;;0.77;0.50;;;;;;;10.61;100.00;60892.56;4872522;28;20025;-88
2021/11/13 05:43:24;;;;;;;0.22;0.22;;;;;;;-145.06;100.00;60892.56;4874952;28;20044;-88
2021/11/13 05:46:03;;;;;;;0.32;0.30;;;;;;;-145.06;100.00;60892.56;4876595;28;20040;-88
2021/11/13 05:48:43;;;;;;;0.50;0.40;;;;;;;-145.06;100.00;60892.56;4880546;28;20061;-87
2021/11/13 05:51:22;;;;;;;0.40;0.40;;;;;;;-145.06;100.00;60892.56;4859545;28;20029;-89
2021/11/13 05:54:01;;;;;;;0.30;0.30;;;;;;;10.65;100.00;60892.56;4887159;28;20032;-89
2021/11/13 05:56:40;;;;;;;0.30;0.30;;;;;;;-145.06;100.00;60892.56;4878955;28;20028;-88
2021/11/13 05:59:18;;;;;;;0.20;0.20;;;;;;;10.58;100.00;60892.56;4877319;28;20033;-89
2021/11/13 06:01:57;;;;;;;0.27;0.20;;;;;;;-145.06;100.00;60892.56;4881139;28;20029;-87
2021/11/13 06:04:37;;;;;;;0.45;0.45;;;;;;;10.53;100.00;60892.56;4880218;28;20028;-88
2021/11/13 06:07:16;;;;;;;0.30;0.30;;;;;;;-145.06;100.00;60892.56;4886608;28;20037;-89
2021/11/13 06:09:55;;;;;;;0.30;0.30;;;;;;;-145.06;100.00;60892.56;4879137;28;20490;-89
2021/11/13 06:12:34;;;;;;;0.30;0.30;;;;;;;-145.06;100.00;60892.56;4879504;28;20502;-88
2021/11/13 06:15:13;;;;;;;0.32;0.32;;;;;;;-145.06;100.00;60892.56;4866149;28;20033;-88
2021/11/13 06:17:52;;;;;;;0.22;0.22;;;;;;;10.51;100.00;60892.56;4874121;28;20087;-88
2021/11/13 06:20:31;;;;;;;1.10;0.30;;;;;;;10.50;100.00;60892.56;4882439;28;20063;-87
2021/11/13 06:23:11;;;;;;;0.25;0.25;;;;;;;-145.06;100.00;60892.56;4873372;28;20060;-88
2021/11/13 06:25:49;;;;;;;0.38;0.30;;;;;;;-145.06;100.00;60892.56;4884709;28;20029;-88
2021/11/13 06:28:29;;;;;;;0.30;0.30;;;;;;;-145.06;100.00;60892.56;4875585;28;20368;-88
2021/11/13 06:31:08;;;;;;;0.30;0.30;;;;;;;-145.06;100.00;60892.56;4879653;28;20291;-89
2021/11/13 06:33:47;;;;;;;0.30;0.30;;;;;;;-145.06;100.00;60892.56;4877516;28;20029;-87
2021/11/13 06:36:26;;;;;;;0.52;0.40;;;;;;;-145.06;100.00;60892.56;4876402;28;20033;-88
2021/11/13 06:39:06;;;;;;;0.32;0.30;;;;;;;10.54;100.00;60892.56;4864902;28;20025;-88
2021/11/13 06:41:45;;;;;;;0.40;0.37;;;;;;;10.54;100.00;60892.56;4873002;28;20044;-88
2021/11/13 06:44:24;;;;;;;0.30;0.30;;;;;;;10.57;100.00;60892.56;4886292;28;20107;-87
2021/11/13 06:47:03;;;;;;;0.40;0.40;;;;;;;-145.06;100.00;60892.56;4868627;28;20108;-87
2021/11/13 06:49:42;;;;;;;0.30;0.28;;;;;;;10.57;100.00;60892.56;4872917;28;20021;-88
2021/11/13 06:52:21;;;;;;;0.30;0.30;;;;;;;-145.06;100.00;60892.56;4878369;28;20032;-87
2021/11/13 06:55:00;;;;;;;0.50;0.43;;;;;;;-145.06;100.00;60892.56;4880647;28;20264;-88
2021/11/13 06:57:41;;;;;;;0.30;0.30;;;;;;;-145.06;100.00;60892.56;4880755;28;20044;-88
2021/11/13 07:00:20;;;;;;;0.52;0.40;;;;;;;-145.06;100.00;60892.56;4884378;28;20045;-87
2021/11/13 07:03:02;;;;;;;0.40;0.40;;;;;;;-145.06;100.00;60892.56;4879164;28;20601;-88
2021/11/13 07:05:42;;;;;;;0.77;0.60;;;;;;;-145.06;100.00;60892.56;4873841;28;20033;-89
2021/11/13 07:08:20;;;;;;;0.80;0.60;;;;;;;-145.06;100.00;60892.56;4893372;28;20470;-87
2021/11/13 07:10:59;;;;;;;0.80;0.70;;;;;;;-145.06;100.00;60892.56;4880841;28;20033;-88
2021/11/13 07:13:38;;;;;;;0.70;0.60;;;;;;;-145.06;100.00;60892.56;4868536;28;20471;-87
2021/11/13 07:16:17;;;;;;;0.53;0.50;;;;;;;-145.06;100.00;60892.56;4887764;28;20025;-88
2021/11/13 07:18:56;;;;;;;0.52;0.45;;;;;;;-145.06;100.00;60892.56;4875160;28;20532;-87
2021/11/13 07:21:37;;;;;;;0.40;0.40;;;;;;;-145.06;100.00;60892.56;4883431;28;20112;-88
2021/11/13 07:24:16;;;;;;;0.77;0.50;;;;;;;10.73;100.00;60892.56;4884020;28;20352;-87
2021/11/13 07:26:55;;;;;;;0.70;0.50;;;;;;;13.28;100.00;60892.56;4887413;28;20021;-88
2021/11/13 07:29:42;;;;;;;0.40;0.40;;;;;;;10.72;100.00;60892.56;4872822;28;20028;-89
2021/11/13 07:32:21;;;;;;;0.28;0.28;;;;;;;10.85;100.00;60892.56;4887292;28;20033;-87
2021/11/13 07:35:01;;;;;;;0.57;0.47;;;;;;;21.08;100.00;60892.56;4879478;28;20364;-87
2021/11/13 07:37:40;;;;;;;0.45;0.40;;;;;;;10.74;100.00;60892.56;4870152;28;20028;-86
2021/11/13 07:40:19;;;;;;;0.63;0.50;;;;;;;-145.06;100.00;60892.56;4876466;28;20475;-88
2021/11/13 07:43:00;;;;;;;0.68;0.30;;;;;;;-145.06;100.00;60892.56;4884442;28;20032;-87
2021/11/13 07:45:40;;;;;;;0.40;0.40;;;;;;;-145.06;100.00;60892.56;4880408;28;20029;-88
2021/11/13 07:48:19;;;;;;;0.47;0.40;;;;;;;-145.06;100.00;60892.56;4888888;28;20033;-87
2021/11/13 07:50:58;;;;;;;0.20;0.20;;;;;;;-145.06;100.00;60892.56;4873230;28;20032;-88
2021/11/13 07:53:37;;;;;;;0.27;0.27;;;;;;;-145.06;100.00;60892.56;4878793;28;20025;-87
2021/11/13 07:56:16;;;;;;;0.30;0.30;;;;;;;-145.06;100.00;60892.56;4875182;28;20037;-87
2021/11/13 07:58:56;;;;;;;0.30;0.30;;;;;;;-145.06;100.00;60892.56;4881097;28;20529;-89
2021/11/13 08:01:35;;;;;;;;;;;;;;;-145.06;100.00;60892.56;4879279;28;20467;-88
2021/11/13 08:04:14;;;;;;;0.30;0.28;;;;;;;-145.06;100.00;60892.56;4873592;28;20255;-89
2021/11/13 08:06:53;;;;;;;0.40;0.40;;;;;;;-145.06;100.00;60892.56;4882635;28;20287;-89
2021/11/13 08:09:32;;;;;;;0.30;0.30;;;;;;;-145.06;100.00;60892.56;4892500;28;20020;-88
2021/11/13 08:12:11;;;;;;;0.47;0.47;;;;;;;-145.06;100.00;60892.56;4870385;28;20439;-88
2021/11/13 08:14:49;;;;;;;0.40;0.40;;;;;;;11.01;100.00;60892.56;4864427;28;20073;-88
2021/11/13 08:17:28;;;;;;;0.30;0.30;;;;;;;-145.06;100.00;60892.56;4882512;28;20040;-88
2021/11/13 08:20:10;;;;;;;0.77;0.30;;;;;;;-145.06;100.00;60892.56;4870669;28;20060;-88
2021/11/13 08:22:49;;;;;;;0.68;0.40;;;;;;;-145.06;100.00;60892.56;4877507;28;20036;-88
2021/11/13 08:25:27;;;;;;;0.80;0.30;;;;;;;-145.06;100.00;60892.56;4865046;28;20056;-88
2021/11/13 08:28:07;;;;;;;0.50;0.40;;;;;;;-145.06;100.00;60892.56;4868656;28;20024;-88
2021/11/13 08:30:47;;;;;;;0.50;0.30;;;;;;;-145.06;100.00;60892.56;4871321;28;20032;-89
2021/11/13 08:33:28;;;;;;;;;;;;;;;-145.06;100.00;60892.56;4884000;28;20514;-88
2021/11/13 08:36:07;;;;;;;0.50;0.50;;;;;;;-145.06;100.00;60892.56;4877266;28;19912;-88
2021/11/13 08:38:46;;;;;;;0.93;0.40;;;;;;;-145.06;100.00;60892.56;4881213;28;20069;-88
2021/11/13 08:41:25;;;;;;;0.50;0.50;;;;;;;-145.06;100.00;60892.56;4882598;28;20471;-88
2021/11/13 08:44:04;;;;;;;0.40;0.40;;;;;;;-145.06;100.00;60892.56;4884997;28;20020;-88
2021/11/13 08:46:43;;;;;;;0.40;0.40;;;;;;;-145.06;100.00;60892.56;4875949;28;20025;-88
2021/11/13 08:49:23;;;;;;;0.40;0.40;;;;;;;-145.06;100.00;60892.56;4875940;28;20029;-88
2021/11/13 08:52:04;;;;;;;0.40;0.40;;;;;;;-145.06;100.00;60892.56;4874318;28;20036;-88
2021/11/13 08:54:44;;;;;;;1.52;0.60;;;;;;;187.52;100.00;60892.56;4871923;28;20364;-88
2021/11/13 08:57:23;;;;;;;1.60;0.40;;;;;;;-145.06;100.00;60892.56;4877715;28;20498;-88
2021/11/13 09:00:06;;;;;;;0.60;0.40;;;;;;;-145.06;100.00;60892.56;4877067;28;20033;-88
2021/11/13 09:02:45;;;;;;;0.40;0.40;;;;;;;-145.06;100.00;60892.56;4864867;28;20037;-88
2021/11/13 09:05:25;;;;;;;0.30;0.30;;;;;;;-145.06;100.00;60892.56;4874845;28;20037;-88
2021/11/13 09:08:04;;;;;;;0.57;0.50;;;;;;;-145.06;100.00;60892.56;4868705;28;20135;-88
2021/11/13 09:10:45;;;;;;;0.88;0.50;;;;;;;-145.06;100.00;60892.56;4864290;28;20052;-88
2021/11/13 09:13:27;;;;;;;0.50;0.50;;;;;;;-145.06;100.00;60892.56;4871516;28;20037;-87
2021/11/13 09:16:08;;;;;;;0.40;0.40;;;;;;;-145.06;100.00;60892.56;4867885;28;20041;-88
2021/11/13 09:18:47;;;;;;;0.40;0.40;;;;;;;-145.06;100.00;60892.56;4866400;28;20029;-87
2021/11/13 09:21:29;;;;;;;0.40;0.40;;;;;;;-145.06;100.00;60892.56;4865673;28;20041;-88
2021/11/13 09:24:08;;;;;;;1.23;0.50;;;;;;;-145.06;100.00;60892.56;4863065;28;20036;-87
2021/11/13 09:26:48;;;;;;;0.32;0.32;;;;;;;11.35;100.00;60892.56;4864249;28;20029;-88
2021/11/13 09:29:27;;;;;;;0.52;0.32;;;;;;;-145.06;100.00;60892.56;4865596;28;20029;-87
2021/11/13 09:32:06;;;;;;;0.50;0.30;;;;;;;-145.06;100.00;60892.56;4861493;28;20026;-87
2021/11/13 09:34:45;;;;;;;0.55;0.50;;;;;;;-145.06;100.00;60892.56;4862312;28;20028;-86
2021/11/13 09:37:24;;;;;;;0.50;0.43;;;;;;;-145.06;100.00;60892.56;4868118;28;20391;-87
2021/11/13 09:40:05;;;;;;;0.40;0.40;;;;;;;-145.06;100.00;60892.56;4863274;28;20025;-88
2021/11/13 09:42:47;;;;;;;0.52;0.40;;;;;;;-145.06;100.00;60892.56;4865142;28;20045;-88
2021/11/13 09:45:28;;;;;;;0.80;0.50;;;;;;;-145.06;100.00;60892.56;4870604;28;20360;-87
2021/11/13 09:48:07;;;;;;;1.02;0.55;;;;;;;-145.06;100.00;60892.56;4865905;28;20037;-88
2021/11/13 09:50:49;;;;;;;0.90;0.63;;;;;;;-145.06;100.00;60892.56;4863763;28;20384;-87
2021/11/13 09:53:30;;;;;;;1.70;0.60;;;;;;;-145.06;100.00;60892.56;4865870;28;20108;-88
2021/11/13 09:56:10;;;;;;;0.82;0.63;;;;;;;-145.06;100.00;60892.56;4864273;28;20072;-88
2021/11/13 09:58:49;;;;;;;;;;;;;;;-145.06;100.00;60892.56;4871349;28;20029;-89
2021/11/13 10:01:28;;;;;;;0.50;0.50;;;;;;;-145.06;100.00;60892.56;4869063;28;19921;-88
2021/11/13 10:04:08;;;;;;;1.27;0.80;;;;;;;-145.06;100.00;60892.56;4870477;28;20064;-89
2021/11/13 10:06:47;;;;;;;0.98;0.68;;;;;;;-145.06;100.00;60892.56;4864277;28;20049;-88
2021/11/13 10:09:26;;;;;;;;;;;;;;;-145.06;100.00;60892.56;4864072;28;20029;-88
2021/11/13 10:12:06;;;;;;;1.40;0.68;;;;;;;-145.06;100.00;60892.56;4863421;28;20263;-89
2021/11/13 10:14:45;;;;;;;0.85;0.57;;;;;;;11.59;100.00;60892.56;4860672;28;20036;-89
2021/11/13 10:17:25;;;;;;;0.95;0.70;;;;;;;11.60;100.00;60892.56;4864231;28;20060;-89
2021/11/13 10:20:20;;;;;;;0.85;0.75;;;;;;;-145.06;100.00;60892.56;4869303;28;20037;-89
2021/11/13 10:23:00;;;;;;;0.60;0.60;;;;;;;-145.06;100.00;60892.56;4873297;28;20041;-89
2021/11/13 10:25:59;;;;;;;0.88;0.70;;;;;;;-145.06;100.00;60892.56;4870447;28;20033;-89
2021/11/13 10:28:46;;;;;;;1.00;0.88;;;;;;;-145.06;100.00;60892.56;4867424;28;20029;-89
2021/11/13 10:31:38;;;;;;;1.10;0.63;;;;;;;-145.06;100.00;60892.56;4861333;28;21034;-89
2021/11/13 10:34:20;;;;;;;1.08;0.75;;;;;;;-145.06;100.00;60892.56;4863889;28;20037;-88
2021/11/13 10:37:03;;;;;;;0.88;0.70;;;;;;;-145.06;100.00;60892.56;4863459;28;20033;-89
2021/11/13 10:39:44;;;;;;;1.10;0.88;;;;;;;-145.06;100.00;60892.56;4865306;28;20034;-89
2021/11/13 10:42:23;;;;;;;1.33;0.90;;;;;;;-145.06;100.00;60892.56;4866427;28;20040;-89
2021/11/13 10:45:03;;;;;;;1.03;0.70;;;;;;;-145.06;100.00;60892.56;4867472;28;20033;-89
2021/11/13 10:47:42;;;;;;;0.60;0.60;;;;;;;-145.06;100.00;60892.56;4868810;28;20120;-89
2021/11/13 10:50:25;;;;;;;1.80;1.10;;;;;;;-145.06;100.00;60892.56;4865582;28;20033;-89
2021/11/13 10:53:12;;;;;;;1.33;0.90;;;;;;;-145.06;100.00;60892.56;4868627;28;20765;-88
2021/11/13 10:56:12;;;;;;;1.25;0.90;;;;;;;-145.06;100.00;60892.56;4865762;28;20068;-89
2021/11/13 10:58:53;;;;;;;0.82;0.82;;;;;;;-145.06;100.00;60892.56;4868620;28;20734;-90
2021/11/13 11:01:48;;;;;;;1.17;0.80;;;;;;;-145.06;100.00;60892.56;4871229;28;20033;-89
2021/11/13 11:04:31;;;;;;;0.90;0.80;;;;;;;-145.06;100.00;60892.56;4874342;28;20033;-88
2021/11/13 11:07:15;;;;;;;1.08;0.80;;;;;;;-145.06;100.00;60892.56;4888571;28;20025;-88
2021/11/13 11:10:08;;;;;;;1.27;0.93;;;;;;;-145.06;100.00;60892.56;4870283;28;20025;-89
2021/11/13 11:12:47;;;;;;;1.00;0.93;;;;;;;-145.06;100.00;60892.56;4859086;28;20033;-89
2021/11/13 11:15:40;;;;;;;1.33;1.00;;;;;;;-145.06;100.00;60892.56;4863440;28;20044;-88
2021/11/13 11:18:19;;;;;;;1.60;0.90;;;;;;;-145.06;100.00;60892.56;4867045;28;20287;-88
2021/11/13 11:20:58;;;;;;;1.20;0.97;;;;;;;-145.06;100.00;60892.56;4871319;28;20037;-89
2021/11/13 11:23:37;;;;;;;1.10;1.00;;;;;;;-145.06;100.00;60892.56;4868602;28;20275;-88
2021/11/13 11:26:16;;;;;;;1.23;0.87;;;;;;;-145.06;100.00;60892.56;4865927;28;20358;-88
2021/11/13 11:28:59;;;;;;;1.00;0.90;;;;;;;-145.06;100.00;60892.56;4866959;28;20017;-89
2021/11/13 11:31:48;;;;;;;1.02;0.70;;;;;;;-145.06;100.00;60892.56;4864895;28;20033;-89
2021/11/13 11:34:36;;;;;;;0.90;0.80;;;;;;;-145.06;100.00;60892.56;4870315;28;20041;-89
2021/11/13 11:37:33;;;;;;;1.83;1.15;;;;;;;-145.06;100.00;60892.56;4864341;28;20436;-88
2021/11/13 11:40:16;;;;;;;0.77;0.70;;;;;;;-145.06;100.00;60892.56;4868197;28;20380;-89
2021/11/13 11:42:58;;;;;;;1.23;0.70;;;;;;;-145.06;100.00;60892.56;4866566;28;20115;-87
2021/11/13 11:45:40;;;;;;;1.02;0.90;;;;;;;-145.06;100.00;60892.56;4862878;28;20503;-88
2021/11/13 11:48:20;;;;;;;1.30;0.80;;;;;;;-145.06;100.00;60892.56;4868690;28;20037;-87
2021/11/13 11:50:59;;;;;;;0.77;0.68;;;;;;;-145.06;100.00;60892.56;4869020;28;20112;-87
2021/11/13 11:53:38;;;;;;;1.87;1.00;;;;;;;-145.06;100.00;60892.56;4865896;28;20470;-88
2021/11/13 11:56:18;;;;;;;1.83;1.27;;;;;;;-145.06;100.00;60892.56;4867730;28;21032;-88
2021/11/13 11:58:59;;;;;;;4.10;2.50;;;;;;;-145.06;100.00;60892.56;4882722;28;20036;-88
2021/11/13 12:01:41;;;;;;;5.45;3.20;;;;;;;-145.06;100.00;60892.56;4869381;28;20028;-88
2021/11/13 12:04:24;;;;;;;4.97;3.20;;;;;;;-145.06;100.00;60892.56;4867546;28;20116;-87
2021/11/13 12:07:04;;;;;;;4.32;2.85;;;;;;;-145.06;100.00;60892.56;4871254;28;20040;-87
2021/11/13 12:10:01;;;;;;;3.42;2.40;;;;;;;-145.06;100.00;60892.56;4872568;28;20037;-88
2021/11/13 12:13:06;;;;;;;2.35;1.85;;;;;;;-145.06;100.00;60892.56;4872645;28;20037;-88